createdAt,value
2022-08-09T10:34:05.282Z,69.40
2022-08-09T10:36:11.513Z,70.00
2022-08-09T10:38:56.540Z,69.80
2022-08-09T10:41:27.883Z,70.00
2022-08-09T10:43:59.319Z,70.20
2022-08-09T10:46:52.337Z,69.60
2022-08-09T10:49:42.725Z,69.10
2022-08-09T10:52:35.715Z,69.20
2022-08-09T10:55:26.593Z,68.90
2022-08-09T10:57:59.930Z,69.20
2022-08-09T11:01:10.988Z,68.80
2022-08-09T11:03:51.019Z,68.90
2022-08-09T12:30:00.181Z,67.50
2022-08-09T12:32:44.845Z,68.20
2022-08-09T13:45:20.109Z,65.50
2022-08-09T13:47:49.496Z,66.20
2022-08-09T13:50:30.413Z,65.70
2022-08-09T13:52:58.894Z,66.30
2022-08-09T13:55:29.162Z,66.90
2022-08-09T13:57:58.596Z,66.70
2022-08-09T14:00:28.845Z,66.70
2022-08-09T14:03:04.263Z,66.80
2022-08-09T14:05:57.322Z,66.80
2022-08-09T14:08:30.549Z,66.30
2022-08-09T14:11:00.165Z,66.30
2022-08-09T14:14:24.136Z,65.10
2022-08-09T14:16:18.210Z,66.10
2022-08-09T14:18:49.804Z,66.20
2022-08-09T14:21:21.084Z,66.20
2022-08-09T14:23:57.072Z,66.70
2022-08-09T14:26:32.046Z,66.70
2022-08-09T14:29:07.367Z,67.70
2022-08-09T14:31:49.977Z,67.00
2022-08-09T14:34:27.308Z,66.90
2022-08-09T14:37:07.626Z,66.90
2022-08-09T15:54:44.263Z,64.70
2022-08-09T15:57:14.580Z,65.80
2022-08-09T15:59:51.825Z,65.80
2022-08-09T16:02:19.958Z,66.30
2022-08-09T16:04:54.766Z,66.80
2022-08-09T16:07:22.082Z,66.40
2022-08-09T16:10:02.503Z,63.20
2022-08-09T16:12:33.491Z,62.50
2022-08-09T16:15:04.871Z,64.60
2022-08-09T16:17:52.391Z,65.00
2022-08-09T16:20:19.724Z,65.20
2022-08-09T16:22:57.670Z,65.60
2022-08-09T16:25:36.932Z,65.40
2022-08-09T16:28:12.051Z,65.00
2022-08-09T16:30:44.566Z,64.60
2022-08-09T16:33:16.019Z,63.80
2022-08-09T16:35:56.843Z,63.90
2022-08-09T16:38:27.586Z,63.70
2022-08-09T16:40:57.122Z,61.10
2022-08-09T16:43:26.728Z,61.60
2022-08-09T16:45:55.653Z,61.10
2022-08-09T16:48:41.364Z,61.10
2022-08-09T16:51:13.930Z,61.80
2022-08-09T16:56:31.812Z,60.80
2022-08-09T16:59:01.303Z,61.20
2022-08-09T17:01:35.462Z,60.90
2022-08-09T17:04:03.631Z,60.90
2022-08-09T17:06:33.491Z,60.90
2022-08-09T17:09:12.051Z,61.00
2022-08-09T17:11:51.606Z,61.30
2022-08-09T17:14:27.392Z,60.80
2022-08-09T17:17:01.060Z,60.50
2022-08-09T17:20:05.162Z,60.10
2022-08-09T17:22:23.821Z,60.30
